createdAt,value
2022-11-14T00:01:15.666Z,6.70
2022-11-14T00:03:43.489Z,6.27
2022-11-14T00:06:11.332Z,6.07
2022-11-14T00:08:39.118Z,6.03
2022-11-14T00:11:09.584Z,5.97
2022-11-14T00:13:38.759Z,5.93
2022-11-14T00:16:06.725Z,6.17
2022-11-14T00:18:34.573Z,6.33
2022-11-14T00:21:02.502Z,6.23
2022-11-14T00:23:30.319Z,6.00
2022-11-14T00:25:58.816Z,6.50
2022-11-14T00:28:26.735Z,6.23
2022-11-14T00:30:56.085Z,6.40
2022-11-14T00:33:24.121Z,6.17
2022-11-14T00:35:54.206Z,6.23
2022-11-14T00:38:22.229Z,6.20
2022-11-14T00:40:52.719Z,6.60
2022-11-14T00:43:20.691Z,6.17
2022-11-14T00:45:49.037Z,6.33
2022-11-14T00:48:18.418Z,7.27
2022-11-14T00:50:46.586Z,6.60
2022-11-14T00:53:14.738Z,6.60
2022-11-14T00:55:43.663Z,6.30
2022-11-14T00:58:11.572Z,7.00
2022-11-14T01:00:39.998Z,6.50
2022-11-14T01:03:07.986Z,7.13
2022-11-14T01:05:42.251Z,7.47
2022-11-14T01:08:10.384Z,7.47
2022-11-14T01:10:41.103Z,6.87
2022-11-14T01:13:09.480Z,6.77
2022-11-14T01:15:41.164Z,6.63
2022-11-14T01:18:09.261Z,6.93
2022-11-14T01:20:39.876Z,6.90
2022-11-14T01:23:08.095Z,7.50
2022-11-14T01:25:36.199Z,7.60
2022-11-14T01:28:07.445Z,7.37
2022-11-14T01:30:35.275Z,6.90
2022-11-14T01:33:03.730Z,7.70
2022-11-14T01:35:32.592Z,7.23
2022-11-14T01:38:02.379Z,6.73
2022-11-14T01:40:30.934Z,6.97
2022-11-14T01:43:27.738Z,7.47
2022-11-14T01:46:01.729Z,7.33
2022-11-14T01:48:36.544Z,7.47
2022-11-14T01:51:15.411Z,7.10
2022-11-14T01:53:45.645Z,6.80
2022-11-14T01:56:18.155Z,6.73
2022-11-14T01:58:51.136Z,7.03
2022-11-14T02:01:19.100Z,6.80
2022-11-14T02:03:51.160Z,7.17
2022-11-14T02:06:24.281Z,7.27
2022-11-14T02:08:53.879Z,7.83
2022-11-14T02:11:21.843Z,7.03
2022-11-14T02:13:49.929Z,7.30
2022-11-14T02:16:17.750Z,7.40
2022-11-14T02:18:45.586Z,7.40
2022-11-14T02:21:14.799Z,8.33
2022-11-14T02:23:42.680Z,7.50
2022-11-14T02:26:10.538Z,7.03
2022-11-14T02:28:38.604Z,8.10
2022-11-14T02:31:06.466Z,7.50
2022-11-14T02:33:34.286Z,7.50
2022-11-14T02:36:02.236Z,7.50
2022-11-14T02:38:32.179Z,8.13
2022-11-14T02:41:01.305Z,8.23
2022-11-14T02:43:29.203Z,7.57
2022-11-14T02:46:00.274Z,7.60
2022-11-14T02:48:32.333Z,8.23
2022-11-14T02:51:00.758Z,7.30
2022-11-14T02:53:28.509Z,8.17
2022-11-14T02:55:57.769Z,8.00
2022-11-14T02:58:25.590Z,7.73
2022-11-14T03:01:19.129Z,8.00
2022-11-14T03:03:41.421Z,8.40
2022-11-14T03:06:09.368Z,8.00
2022-11-14T03:08:37.245Z,8.67
2022-11-14T03:11:07.628Z,8.00
2022-11-14T03:13:35.690Z,7.93
2022-11-14T03:16:07.392Z,8.17
2022-11-14T03:18:35.877Z,8.50
2022-11-14T03:21:07.707Z,8.07
2022-11-14T03:23:35.703Z,7.73
2022-11-14T03:26:03.951Z,7.77
2022-11-14T03:28:33.317Z,8.40
2022-11-14T03:31:01.243Z,8.47
2022-11-14T03:33:29.402Z,7.97
2022-11-14T03:35:57.205Z,8.67
2022-11-14T03:38:25.977Z,8.37
2022-11-14T03:40:54.298Z,8.27
2022-11-14T03:43:22.970Z,9.43
2022-11-14T03:45:52.423Z,8.07
2022-11-14T03:48:20.215Z,8.50
2022-11-14T03:50:48.204Z,8.37
2022-11-14T03:53:16.064Z,8.77
2022-11-14T03:55:44.671Z,8.37
2022-11-14T03:58:12.570Z,8.30
2022-11-14T04:00:40.518Z,8.47
2022-11-14T04:03:09.886Z,9.00
2022-11-14T04:05:37.829Z,8.77
2022-11-14T04:08:06.689Z,8.87
2022-11-14T04:10:34.649Z,8.63
2022-11-14T04:13:02.537Z,9.10
2022-11-14T04:15:30.326Z,8.77
2022-11-14T04:17:58.380Z,9.17
2022-11-14T04:20:28.088Z,9.60
2022-11-14T04:22:55.845Z,8.93
2022-11-14T04:25:23.752Z,9.20
2022-11-14T04:27:51.615Z,8.87
2022-11-14T04:30:19.537Z,8.10
2022-11-14T04:32:48.491Z,8.67
2022-11-14T04:35:16.586Z,8.27
2022-11-14T04:37:45.878Z,8.93
2022-11-14T04:40:13.959Z,8.97
2022-11-14T04:42:41.722Z,8.90
2022-11-14T04:45:10.326Z,8.97
2022-11-14T04:47:40.104Z,8.97
2022-11-14T04:50:09.199Z,8.97
2022-11-14T04:52:37.108Z,8.80
2022-11-14T04:55:06.909Z,8.90
2022-11-14T04:57:34.752Z,9.33
2022-11-14T05:00:02.794Z,9.13
2022-11-14T05:02:32.248Z,9.13
2022-11-14T05:05:00.053Z,10.27
2022-11-14T05:07:27.881Z,9.80
2022-11-14T05:09:55.959Z,9.10
2022-11-14T05:12:25.158Z,8.97
2022-11-14T05:14:52.953Z,10.33
2022-11-14T05:17:21.033Z,10.03
2022-11-14T05:19:48.923Z,9.40
2022-11-14T05:22:16.937Z,10.10
2022-11-14T05:24:44.764Z,9.43
2022-11-14T05:27:12.827Z,9.53
2022-11-14T05:29:42.125Z,9.33
2022-11-14T05:32:15.081Z,9.20
2022-11-14T05:34:44.003Z,8.80
2022-11-14T05:37:11.852Z,10.40
2022-11-14T05:39:39.735Z,8.97
2022-11-14T05:42:07.625Z,9.40
2022-11-14T05:44:35.499Z,9.63
2022-11-14T05:47:04.722Z,9.63
2022-11-14T05:49:32.535Z,10.57
2022-11-14T05:52:00.328Z,9.40
2022-11-14T05:54:28.382Z,10.10
2022-11-14T05:56:56.191Z,9.90
2022-11-14T05:59:24.485Z,10.13
2022-11-14T06:01:52.402Z,9.70
2022-11-14T06:04:21.708Z,9.33
2022-11-14T06:06:49.605Z,9.73
2022-11-14T06:09:17.715Z,9.17
2022-11-14T06:11:45.564Z,9.50
2022-11-14T06:14:13.398Z,9.63
2022-11-14T06:16:41.228Z,10.17
2022-11-14T06:19:09.165Z,10.50
2022-11-14T06:21:38.370Z,8.87
2022-11-14T06:24:07.127Z,9.47
2022-11-14T06:26:35.176Z,9.70
2022-11-14T06:29:03.086Z,9.97
2022-11-14T06:31:31.264Z,9.57
2022-11-14T06:33:59.068Z,9.90
2022-11-14T06:36:27.022Z,10.23
2022-11-14T06:38:56.213Z,9.80
2022-11-14T06:41:24.646Z,8.83
2022-11-14T06:43:54.925Z,9.77
2022-11-14T06:46:23.929Z,10.27
2022-11-14T06:48:52.507Z,9.53
2022-11-14T06:51:20.831Z,8.77
2022-11-14T06:53:48.905Z,9.80
2022-11-14T06:56:20.234Z,9.43
2022-11-14T06:58:50.138Z,8.43
2022-11-14T07:01:20.171Z,9.30
2022-11-14T07:03:48.701Z,9.70
2022-11-14T07:06:19.089Z,9.47
2022-11-14T07:08:47.302Z,9.60
2022-11-14T07:11:22.922Z,8.70
2022-11-14T07:13:52.936Z,9.27
2022-11-14T07:16:21.290Z,9.83
2022-11-14T07:18:49.280Z,9.13
2022-11-14T07:21:17.239Z,9.60
2022-11-14T07:23:45.020Z,9.77
2022-11-14T07:26:13.523Z,9.77
2022-11-14T07:28:42.959Z,10.07
2022-11-14T07:31:14.466Z,8.70
2022-11-14T07:33:43.667Z,9.30
2022-11-14T07:36:12.250Z,9.00
2022-11-14T07:38:41.022Z,9.50
2022-11-14T07:41:10.841Z,9.27
2022-11-14T07:43:38.959Z,9.50
2022-11-14T07:46:09.004Z,10.03
2022-11-14T07:48:38.204Z,9.87
2022-11-14T07:51:08.381Z,9.97
2022-11-14T07:53:36.692Z,9.67
2022-11-14T07:56:06.748Z,9.77
2022-11-14T07:58:36.163Z,9.97
2022-11-14T08:01:05.264Z,9.23
2022-11-14T08:03:33.480Z,9.87
2022-11-14T08:06:03.952Z,10.13
2022-11-14T08:08:32.592Z,10.60
2022-11-14T08:11:01.382Z,10.27
2022-11-14T08:13:32.026Z,11.03
2022-11-14T08:16:01.157Z,10.33
2022-11-14T08:18:29.312Z,12.00
2022-11-14T08:20:57.662Z,12.23
2022-11-14T08:23:26.893Z,12.07
2022-11-14T08:25:54.944Z,12.13
2022-11-14T08:28:22.783Z,11.83
2022-11-14T08:30:50.637Z,12.77
2022-11-14T08:33:18.480Z,11.03
2022-11-14T08:35:46.462Z,11.47
2022-11-14T08:38:14.454Z,10.60
2022-11-14T08:40:45.296Z,9.27
2022-11-14T08:43:13.255Z,9.23
2022-11-14T08:45:41.125Z,9.70
2022-11-14T08:48:09.095Z,9.13
2022-11-14T08:50:36.959Z,9.80
2022-11-14T08:53:04.809Z,9.50
2022-11-14T08:55:32.658Z,9.80
2022-11-14T08:58:01.897Z,10.40
2022-11-14T09:00:29.977Z,8.73
2022-11-14T09:02:57.890Z,6.63
2022-11-14T09:05:27.102Z,10.60
2022-11-14T09:07:55.144Z,10.43
2022-11-14T09:10:24.983Z,9.87
2022-11-14T09:12:56.815Z,10.23
2022-11-14T09:15:26.320Z,10.60
2022-11-14T09:17:54.553Z,9.27
2022-11-14T09:20:28.273Z,10.70
2022-11-14T09:23:00.097Z,11.37
2022-11-14T09:25:30.134Z,10.07
2022-11-14T09:27:58.836Z,7.93
2022-11-14T09:30:28.114Z,9.83
2022-11-14T09:33:00.982Z,8.93
2022-11-14T09:35:32.077Z,10.70
2022-11-14T09:38:03.059Z,9.93
2022-11-14T09:40:32.532Z,11.40
2022-11-14T09:43:14.514Z,11.27
2022-11-14T09:45:49.815Z,11.10
2022-11-14T09:48:21.293Z,10.43
2022-11-14T09:51:01.443Z,11.40
2022-11-14T09:53:34.260Z,11.50
2022-11-14T09:56:02.773Z,10.83
2022-11-14T09:58:39.671Z,10.93
2022-11-14T10:01:17.631Z,11.27
2022-11-14T10:03:54.318Z,11.77
2022-11-14T10:06:31.157Z,10.80
2022-11-14T10:09:19.293Z,12.07
2022-11-14T10:11:54.987Z,10.17
2022-11-14T10:14:47.796Z,11.80
2022-11-14T10:17:35.563Z,10.27
2022-11-14T10:20:15.258Z,11.17
2022-11-14T10:23:03.585Z,10.60
2022-11-14T10:25:44.266Z,10.47
2022-11-14T10:28:33.807Z,11.57
2022-11-14T10:31:08.488Z,11.03
2022-11-14T10:33:51.092Z,10.17
2022-11-14T10:36:27.705Z,10.47
2022-11-14T10:39:03.829Z,9.37
2022-11-14T10:41:55.913Z,8.83
2022-11-14T10:44:29.630Z,9.43
2022-11-14T10:47:03.032Z,8.93
2022-11-14T10:49:39.607Z,8.50
2022-11-14T10:52:14.217Z,7.93
2022-11-14T10:54:47.135Z,7.80
2022-11-14T10:57:18.324Z,7.47
2022-11-14T10:59:47.512Z,8.50
2022-11-14T11:02:16.159Z,7.33
2022-11-14T11:04:47.109Z,7.60
2022-11-14T11:07:42.557Z,8.37
2022-11-14T11:10:39.181Z,7.27
2022-11-14T11:13:09.738Z,7.53
2022-11-14T11:15:42.389Z,6.90
2022-11-14T11:18:27.276Z,7.10
2022-11-14T11:21:09.183Z,7.63
2022-11-14T11:23:38.487Z,7.07
2022-11-14T11:26:09.587Z,5.90
2022-11-14T11:28:38.629Z,6.07
2022-11-14T11:31:08.449Z,6.40
2022-11-14T11:33:37.687Z,6.27
2022-11-14T11:36:13.286Z,6.50
2022-11-14T11:38:42.340Z,6.10
2022-11-14T11:41:52.707Z,5.63
2022-11-14T11:44:14.074Z,5.57
2022-11-14T11:46:48.347Z,6.73
2022-11-14T11:49:20.597Z,5.73
2022-11-14T11:51:56.923Z,6.90
2022-11-14T11:54:31.287Z,7.00
2022-11-14T11:57:03.427Z,6.63
2022-11-14T11:59:36.511Z,7.37
2022-11-14T12:02:18.421Z,6.57
2022-11-14T12:04:46.551Z,6.73
2022-11-14T12:07:20.340Z,6.90
2022-11-14T12:10:09.899Z,7.63
2022-11-14T12:13:04.200Z,6.57
2022-11-14T12:15:43.686Z,6.70
2022-11-14T12:18:24.460Z,6.27
2022-11-14T12:21:06.247Z,7.33
2022-11-14T12:23:57.899Z,5.83
2022-11-14T12:26:42.089Z,7.40
2022-11-14T12:29:32.671Z,7.17
2022-11-14T12:32:07.089Z,7.50
2022-11-14T12:34:41.783Z,8.30
2022-11-14T12:37:15.700Z,7.63
2022-11-14T12:39:57.746Z,7.07
2022-11-14T12:42:27.145Z,7.77
2022-11-14T12:44:55.004Z,8.17
2022-11-14T12:47:24.784Z,7.83
2022-11-14T12:50:27.052Z,7.60
2022-11-14T12:52:55.151Z,7.17
2022-11-14T12:56:05.207Z,7.23
2022-11-14T12:58:48.921Z,8.47
2022-11-14T13:01:51.662Z,7.70
2022-11-14T13:04:29.962Z,7.27
2022-11-14T13:07:15.083Z,7.53
2022-11-14T13:10:05.164Z,6.93
2022-11-14T13:12:53.566Z,6.57
2022-11-14T13:15:49.714Z,6.60
2022-11-14T13:18:42.580Z,6.87
2022-11-14T13:21:45.129Z,6.80
2022-11-14T13:24:16.254Z,6.17
2022-11-14T13:26:51.941Z,6.50
2022-11-14T13:30:00.090Z,6.63
2022-11-14T13:33:07.769Z,6.40
2022-11-14T13:35:48.604Z,6.27
2022-11-14T13:39:01.099Z,6.77
2022-11-14T13:42:15.946Z,7.00
2022-11-14T13:45:44.177Z,6.07
2022-11-14T13:48:51.845Z,7.30
2022-11-14T13:54:17.412Z,6.73
2022-11-14T13:57:10.145Z,7.20
2022-11-14T13:59:53.903Z,6.60
2022-11-14T14:02:44.092Z,7.23
2022-11-14T14:05:22.476Z,7.80
2022-11-14T14:08:04.977Z,7.53
2022-11-14T14:10:41.588Z,8.07
2022-11-14T14:13:22.308Z,7.60
2022-11-14T14:16:04.133Z,7.80
2022-11-14T14:18:46.972Z,7.37
2022-11-14T14:21:28.200Z,8.07
2022-11-14T14:24:08.098Z,8.47
2022-11-14T14:26:55.461Z,8.07
2022-11-14T14:29:28.788Z,7.87
2022-11-14T14:32:08.460Z,8.90
2022-11-14T14:34:36.841Z,9.17
2022-11-14T14:37:05.341Z,9.03
2022-11-14T14:39:34.918Z,8.10
2022-11-14T14:42:03.626Z,9.30
2022-11-14T14:44:38.290Z,8.90
2022-11-14T14:47:16.246Z,9.00
2022-11-14T14:49:45.125Z,8.60
2022-11-14T14:52:23.571Z,9.33
2022-11-14T14:54:57.384Z,8.10
2022-11-14T14:57:25.972Z,8.80
2022-11-14T15:00:00.585Z,8.83
2022-11-14T15:02:29.944Z,8.90
2022-11-14T15:05:00.660Z,9.00
2022-11-14T15:07:30.638Z,9.83
2022-11-14T15:10:02.279Z,9.13
2022-11-14T15:12:32.170Z,10.03
2022-11-14T15:15:02.697Z,8.70
2022-11-14T15:17:35.684Z,9.70
2022-11-14T15:20:04.688Z,8.40
2022-11-14T15:22:33.691Z,8.83
2022-11-14T15:25:23.923Z,9.00
2022-11-14T15:27:54.626Z,8.87
2022-11-14T15:30:25.404Z,9.17
2022-11-14T15:32:55.010Z,9.47
2022-11-14T15:35:29.395Z,9.13
2022-11-14T15:38:36.673Z,9.50
2022-11-14T15:41:21.629Z,8.83
2022-11-14T15:43:53.147Z,10.10
2022-11-14T15:46:38.866Z,10.13
2022-11-14T15:49:12.174Z,10.43
2022-11-14T15:51:43.657Z,9.63
2022-11-14T15:54:23.927Z,9.60
2022-11-14T15:56:54.058Z,9.87
2022-11-14T15:59:22.156Z,9.83
2022-11-14T16:01:53.730Z,8.97
2022-11-14T16:04:24.331Z,9.07
2022-11-14T16:06:52.241Z,9.27
2022-11-14T16:09:22.195Z,8.80
2022-11-14T16:11:50.291Z,10.27
2022-11-14T16:14:19.531Z,9.90
2022-11-14T16:16:47.414Z,9.53
2022-11-14T16:19:17.406Z,10.57
2022-11-14T16:21:45.762Z,10.10
2022-11-14T16:24:17.938Z,10.27
2022-11-14T16:26:46.308Z,10.17
2022-11-14T16:29:15.130Z,9.97
2022-11-14T16:31:45.332Z,10.20
2022-11-14T16:34:19.348Z,9.70
2022-11-14T16:36:48.670Z,9.47
2022-11-14T16:39:16.796Z,10.17
2022-11-14T16:41:44.826Z,8.97
2022-11-14T16:44:17.785Z,9.30
2022-11-14T16:46:47.590Z,10.23
2022-11-14T16:49:17.324Z,10.13
2022-11-14T16:51:49.839Z,10.00
2022-11-14T16:54:18.482Z,9.43
2022-11-14T16:56:46.380Z,9.43
2022-11-14T16:59:14.884Z,11.63
2022-11-14T17:01:43.249Z,10.40
2022-11-14T17:04:13.091Z,9.63
2022-11-14T17:06:40.961Z,10.73
2022-11-14T17:09:09.074Z,10.67
2022-11-14T17:11:36.884Z,9.73
2022-11-14T17:14:04.946Z,11.03
2022-11-14T17:16:33.102Z,11.70
2022-11-14T17:19:01.418Z,11.83
2022-11-14T17:21:30.785Z,10.67
2022-11-14T17:24:01.417Z,10.10
2022-11-14T17:26:29.571Z,11.10
2022-11-14T17:28:57.416Z,10.73
2022-11-14T17:31:25.267Z,10.53
2022-11-14T17:33:54.618Z,10.47
2022-11-14T17:36:23.238Z,10.57
2022-11-14T17:38:52.741Z,10.63
2022-11-14T17:41:20.942Z,14.80
2022-11-14T17:43:52.838Z,10.33
2022-11-14T17:46:21.078Z,11.73
2022-11-14T17:48:49.058Z,10.80
2022-11-14T17:51:17.777Z,9.90
2022-11-14T17:53:45.577Z,10.03
2022-11-14T17:56:17.795Z,9.53
2022-11-14T17:58:46.818Z,10.00
2022-11-14T18:01:17.026Z,9.97
2022-11-14T18:03:44.994Z,9.93
2022-11-14T18:06:14.674Z,9.40
2022-11-14T18:08:42.846Z,9.97
2022-11-14T18:11:12.984Z,9.90
2022-11-14T18:13:42.498Z,10.00
2022-11-14T18:16:13.536Z,9.90
2022-11-14T18:18:42.861Z,9.73
2022-11-14T18:21:12.016Z,10.10
2022-11-14T18:23:39.915Z,8.83
2022-11-14T18:26:11.982Z,9.73
2022-11-14T18:28:40.107Z,9.57
2022-11-14T18:31:11.017Z,8.10
2022-11-14T18:33:39.425Z,9.73
2022-11-14T18:36:10.318Z,8.70
2022-11-14T18:38:38.436Z,9.30
2022-11-14T18:41:10.014Z,9.00
2022-11-14T18:43:37.860Z,9.03
2022-11-14T18:46:07.665Z,9.23
2022-11-14T18:48:38.273Z,8.60
2022-11-14T18:51:07.941Z,9.20
2022-11-14T18:53:37.046Z,9.37
2022-11-14T18:56:05.900Z,8.77
2022-11-14T18:58:35.987Z,8.07
2022-11-14T19:01:10.923Z,8.53
2022-11-14T19:03:40.316Z,8.27
2022-11-14T19:06:09.909Z,7.97
2022-11-14T19:08:38.022Z,8.97
2022-11-14T19:11:08.085Z,8.00
2022-11-14T19:13:36.208Z,8.83
2022-11-14T19:16:04.707Z,8.73
2022-11-14T19:18:33.844Z,7.77
2022-11-14T19:21:06.649Z,8.17
2022-11-14T19:23:34.778Z,8.03
2022-11-14T19:26:03.475Z,7.50
2022-11-14T19:28:31.465Z,8.13
2022-11-14T19:31:03.052Z,8.10
2022-11-14T19:33:31.650Z,7.43
2022-11-14T19:36:05.314Z,7.43
2022-11-14T19:38:34.503Z,7.50
2022-11-14T19:41:07.931Z,6.70
2022-11-14T19:43:35.894Z,7.07
2022-11-14T19:46:04.594Z,6.93
2022-11-14T19:48:32.920Z,7.70
2022-11-14T19:51:05.407Z,7.30
2022-11-14T19:53:37.088Z,7.10
2022-11-14T19:56:07.555Z,7.43
2022-11-14T19:58:37.603Z,7.53
2022-11-14T20:01:07.964Z,7.60
2022-11-14T20:03:36.984Z,6.73
2022-11-14T20:06:05.942Z,8.60
2022-11-14T20:08:36.990Z,7.90
2022-11-14T20:11:06.789Z,7.77
2022-11-14T20:13:36.811Z,7.50
2022-11-14T20:16:09.804Z,7.53
2022-11-14T20:18:37.801Z,7.60
2022-11-14T20:21:06.470Z,7.30
2022-11-14T20:23:36.557Z,7.90
2022-11-14T20:26:09.943Z,7.53
2022-11-14T20:28:39.475Z,7.60
2022-11-14T20:31:10.812Z,7.93
2022-11-14T20:33:41.496Z,8.03
2022-11-14T20:36:13.432Z,7.47
2022-11-14T20:38:44.403Z,7.40
2022-11-14T20:41:13.065Z,8.33
2022-11-14T20:43:41.860Z,8.73
2022-11-14T20:46:13.611Z,8.43
2022-11-14T20:48:42.746Z,8.37
2022-11-14T20:51:14.127Z,7.17
2022-11-14T20:53:44.247Z,8.77
2022-11-14T20:56:13.727Z,8.50
2022-11-14T20:58:42.352Z,8.57
2022-11-14T21:01:11.085Z,7.67
2022-11-14T21:03:39.384Z,6.67
2022-11-14T21:06:08.384Z,7.90
2022-11-14T21:08:37.779Z,7.83
2022-11-14T21:11:09.313Z,8.57
2022-11-14T21:13:55.882Z,7.80
2022-11-14T21:16:26.049Z,8.37
2022-11-14T21:18:54.853Z,7.77
2022-11-14T21:21:25.000Z,8.33
2022-11-14T21:23:53.205Z,8.37
2022-11-14T21:26:24.558Z,9.00
2022-11-14T21:28:55.186Z,8.27
2022-11-14T21:31:24.960Z,7.57
2022-11-14T21:33:56.580Z,8.43
2022-11-14T21:39:15.248Z,8.13
2022-11-14T21:41:46.053Z,8.60
2022-11-14T21:44:16.559Z,7.90
2022-11-14T21:46:47.121Z,7.43
2022-11-14T21:49:15.596Z,7.73
2022-11-14T21:51:43.496Z,7.43
2022-11-14T21:54:11.627Z,7.43
2022-11-14T21:56:39.596Z,7.17
2022-11-14T21:59:15.534Z,8.13
2022-11-14T22:02:02.648Z,7.93
2022-11-14T22:04:31.330Z,6.83
2022-11-14T22:06:59.872Z,7.50
2022-11-14T22:09:28.531Z,7.20
2022-11-14T22:11:56.840Z,6.87
2022-11-14T22:14:26.453Z,7.20
2022-11-14T22:16:54.285Z,7.30
2022-11-14T22:19:22.176Z,6.73
2022-11-14T22:21:49.938Z,7.87
2022-11-14T22:24:17.931Z,6.70
2022-11-14T22:26:45.795Z,7.83
2022-11-14T22:29:13.822Z,7.40
2022-11-14T22:31:43.027Z,7.33
2022-11-14T22:34:12.455Z,7.23
2022-11-14T22:36:40.310Z,7.37
2022-11-14T22:39:08.616Z,7.27
2022-11-14T22:41:36.732Z,6.93
2022-11-14T22:44:04.525Z,7.17
2022-11-14T22:46:32.306Z,6.80
2022-11-14T22:49:03.948Z,6.57
2022-11-14T22:51:31.898Z,6.57
2022-11-14T22:54:00.359Z,6.23
2022-11-14T22:56:30.447Z,6.50
2022-11-14T22:59:00.649Z,6.57
2022-11-14T23:01:31.162Z,6.53
2022-11-14T23:04:02.056Z,7.17
2022-11-14T23:06:31.545Z,6.60
2022-11-14T23:08:59.864Z,6.80
2022-11-14T23:11:29.116Z,6.03
2022-11-14T23:13:59.264Z,6.87
2022-11-14T23:16:28.897Z,6.07
2022-11-14T23:18:59.010Z,6.13
2022-11-14T23:21:30.451Z,6.50
2022-11-14T23:23:59.783Z,5.80
2022-11-14T23:26:28.953Z,7.00
2022-11-14T23:28:57.231Z,6.13
2022-11-14T23:31:25.963Z,6.70
2022-11-14T23:33:55.160Z,6.00
2022-11-14T23:36:23.463Z,6.27
2022-11-14T23:38:54.480Z,6.40
2022-11-14T23:41:25.508Z,5.73
2022-11-14T23:43:53.944Z,6.30
2022-11-14T23:46:21.785Z,7.00
2022-11-14T23:48:50.822Z,6.50
2022-11-14T23:51:18.789Z,6.90
2022-11-14T23:53:46.872Z,6.10
2022-11-14T23:56:16.327Z,6.23
2022-11-14T23:58:44.190Z,6.40
